Center, South Dakota
Current Conditions -  °F | °C
As of 1:10 PM on Sunday 21 Dec 2014 (Local Time) from KMDS Reporting Station
Moderate Fog Moderate Fog  
Wind Chill: 20°   Ceiling: 200
Heat Index: 32°   Visibility: 0mi
Dew Point: 32°   Wind: 18mph
Humidity: 100%   Direction: 170°S
Pressure: 29.6"   Gusts: 22mph
Location:  43.7599°N, 97.3683°W
Report Text: KMDS 211910Z AUTO 17016G19KT M1/4SM FZFG OVC002 00/00 A2960 RMK AO2
Loading
Personal Weather Stations






























Interactive Weather Map New forecast layout! Learn more

10-Day Weather Forecast

Advertisements
Track Severe Weather on mobile